Time;durP1;ratioP1;P1;durP2;ratioP2;P2;SDS_P1;SDS_P2;PMS_P1;PMS_P2;Temp;Humidity;BMP_temperature;BMP_pressure;BME280_temperature;BME280_humidity;BME280_pressure;Samples;Min_cycle;Max_cycle;Signal;HPM_P1;HPM_P2
2022/02/13 00:00:09;;;;;;;15.98;11.52;;;;;;;4.70;61.20;96102.78;5113326;28;20027;-67
2022/02/13 00:02:38;;;;;;;20.00;12.43;;;;;;;4.68;61.32;96109.72;5112218;28;20497;-67
2022/02/13 00:05:04;;;;;;;16.10;11.52;;;;;;;4.55;61.47;96105.97;5100950;27;20039;-67
2022/02/13 00:07:35;;;;;;;16.65;11.45;;;;;;;4.57;60.85;96102.44;5115449;27;20413;-68
2022/02/13 00:10:01;;;;;;;17.30;11.05;;;;;;;4.58;60.64;96092.97;5132483;27;20030;-68
2022/02/13 00:12:27;;;;;;;20.33;12.18;;;;;;;4.52;60.55;96104.34;5105489;27;20118;-67
2022/02/13 00:14:55;;;;;;;15.70;10.60;;;;;;;4.58;60.16;96104.09;5133500;27;20072;-68
2022/02/13 00:17:20;;;;;;;16.85;11.00;;;;;;;4.57;60.10;96109.28;5132241;27;20031;-67
2022/02/13 00:19:46;;;;;;;13.02;9.13;;;;;;;4.51;58.53;96104.41;5115123;27;20027;-67
2022/02/13 00:22:12;;;;;;;13.38;9.07;;;;;;;4.43;58.35;96099.53;5132193;27;20023;-67
2022/02/13 00:24:37;;;;;;;17.88;10.38;;;;;;;4.50;58.66;96110.44;5114567;27;20126;-68
2022/02/13 00:27:03;;;;;;;13.35;9.25;;;;;;;4.50;57.54;96105.31;5131583;27;20110;-67
2022/02/13 00:29:28;;;;;;;13.88;9.20;;;;;;;4.44;57.78;96116.66;5114342;27;20060;-67
2022/02/13 00:31:54;;;;;;;12.23;8.73;;;;;;;4.37;58.53;96103.19;5130551;27;20446;-67
2022/02/13 00:34:19;;;;;;;14.30;9.25;;;;;;;4.35;57.97;96099.84;5133038;27;20140;-67
2022/02/13 00:36:45;;;;;;;13.40;8.57;;;;;;;4.24;57.83;96084.81;5114187;27;20043;-68
2022/02/13 00:39:11;;;;;;;11.98;8.05;;;;;;;4.37;58.01;96104.91;5112613;28;20070;-68
2022/02/13 00:41:36;;;;;;;12.57;7.57;;;;;;;4.34;57.20;96105.88;5111116;28;20501;-67
2022/02/13 00:44:02;;;;;;;11.82;7.47;;;;;;;4.30;56.96;96101.75;5077304;28;20031;-68
2022/02/13 00:46:28;;;;;;;16.45;8.57;;;;;;;4.26;57.00;96102.75;5112809;28;20465;-67
2022/02/13 00:48:54;;;;;;;10.50;7.07;;;;;;;4.24;56.95;96102.81;5118695;27;20054;-68
2022/02/13 00:51:20;;;;;;;10.70;7.28;;;;;;;4.18;56.71;96099.63;5131797;27;20110;-67
2022/02/13 00:53:45;;;;;;;12.32;8.05;;;;;;;4.20;57.06;96105.56;5131593;27;20031;-67
2022/02/13 00:56:11;;;;;;;13.30;7.57;;;;;;;4.13;56.72;96102.38;5131590;27;20030;-67
2022/02/13 00:58:36;;;;;;;11.90;7.28;;;;;;;4.05;57.19;96103.56;5117331;27;20031;-67
2022/02/13 01:01:02;;;;;;;10.40;6.90;;;;;;;4.03;57.31;96109.56;5112367;28;20031;-67
2022/02/13 01:03:27;;;;;;;10.48;7.63;;;;;;;4.00;57.82;96099.41;5112075;28;20164;-68
2022/02/13 01:05:53;;;;;;;11.15;7.70;;;;;;;3.99;57.47;96110.59;5110854;28;20039;-67
2022/02/13 01:08:18;;;;;;;10.88;7.13;;;;;;;4.00;58.14;96117.41;5130790;27;20120;-67
2022/02/13 01:10:44;;;;;;;9.38;6.47;;;;;;;3.86;56.58;96114.50;5114135;27;20490;-68
2022/02/13 01:13:09;;;;;;;10.68;7.22;;;;;;;3.66;57.16;96110.06;5132139;27;20492;-67
2022/02/13 01:15:35;;;;;;;10.45;6.72;;;;;;;3.66;57.01;96097.22;5115603;27;20520;-67
2022/02/13 01:18:01;;;;;;;8.63;5.95;;;;;;;3.65;57.05;96105.84;5111833;27;20046;-67
2022/02/13 01:20:26;;;;;;;8.23;6.05;;;;;;;3.66;56.41;96101.53;5111896;28;20027;-67
2022/02/13 01:22:51;;;;;;;9.25;6.10;;;;;;;3.51;56.89;96102.88;5111713;28;20035;-67
2022/02/13 01:25:17;;;;;;;10.70;6.60;;;;;;;3.43;55.84;96100.59;5111735;27;20047;-67
2022/02/13 01:27:42;;;;;;;9.60;6.30;;;;;;;3.35;56.19;96100.84;5112664;27;20540;-67
2022/02/13 01:30:08;;;;;;;12.48;7.30;;;;;;;3.27;56.92;96097.69;5110264;28;20038;-67
2022/02/13 01:32:34;;;;;;;9.80;6.63;;;;;;;3.12;57.44;96095.63;5110387;28;20119;-67
2022/02/13 01:34:59;;;;;;;9.60;6.63;;;;;;;3.13;57.54;96092.19;5110354;28;20417;-67
2022/02/13 01:37:25;;;;;;;10.15;6.65;;;;;;;3.13;58.36;96080.19;5121385;27;20043;-67
2022/02/13 01:39:50;;;;;;;9.68;6.55;;;;;;;3.20;57.85;96073.09;5130073;27;20034;-67
2022/02/13 01:42:15;;;;;;;9.13;6.57;;;;;;;3.26;56.96;96074.63;5130836;27;20551;-67
2022/02/13 01:44:41;;;;;;;11.13;6.85;;;;;;;3.25;57.10;96078.09;5130581;27;20481;-67
2022/02/13 01:47:07;;;;;;;10.57;6.93;;;;;;;3.26;57.53;96066.91;5121854;27;20448;-67
2022/02/13 01:49:32;;;;;;;13.38;7.28;;;;;;;3.14;57.14;96045.91;5110169;28;20030;-67
2022/02/13 01:52:02;;;;;;;11.27;7.10;;;;;;;3.26;57.38;96072.91;5078253;27;20026;-67
2022/02/13 01:54:27;;;;;;;10.07;7.38;;;;;;;3.27;58.02;96060.91;5093249;28;20035;-67
2022/02/13 01:56:53;;;;;;;11.20;6.88;;;;;;;3.36;57.39;96069.13;5110292;28;20036;-67
2022/02/13 01:59:18;;;;;;;10.25;7.13;;;;;;;3.20;58.35;96049.16;5111236;28;20107;-67
2022/02/13 02:01:44;;;;;;;10.45;6.53;;;;;;;3.26;58.06;96059.22;5089833;28;20052;-67
2022/02/13 02:04:09;;;;;;;13.07;7.28;;;;;;;3.18;57.73;96056.09;5090791;28;20044;-67
2022/02/13 02:06:35;;;;;;;8.75;5.55;;;;;;;3.31;55.24;96070.19;5101132;28;20027;-67
2022/02/13 02:09:02;;;;;;;8.95;5.70;;;;;;;3.30;56.38;96055.66;5106335;28;20043;-67
2022/02/13 02:11:28;;;;;;;7.75;5.38;;;;;;;3.32;53.96;96061.59;5076832;28;20122;-67
2022/02/13 02:13:53;;;;;;;7.60;5.30;;;;;;;3.16;53.33;96055.31;5108407;28;20084;-67
2022/02/13 02:16:18;;;;;;;6.53;4.88;;;;;;;3.19;53.15;96060.34;5098470;28;20016;-67
2022/02/13 02:18:44;;;;;;;8.27;4.85;;;;;;;3.18;52.28;96066.38;5083963;28;20036;-67
2022/02/13 02:21:09;;;;;;;8.32;4.60;;;;;;;3.16;52.24;96063.00;5093573;28;20039;-67
2022/02/13 02:23:37;;;;;;;8.80;4.80;;;;;;;2.94;52.41;96056.00;5089564;28;20052;-67
2022/02/13 02:26:02;;;;;;;7.57;4.32;;;;;;;2.90;51.82;96073.25;5100776;28;20042;-67
2022/02/13 02:28:28;;;;;;;7.40;4.43;;;;;;;2.83;52.46;96068.34;5111682;28;20023;-67
2022/02/13 02:30:53;;;;;;;10.43;4.30;;;;;;;2.77;51.74;96069.41;5109830;27;20039;-67
2022/02/13 02:33:19;;;;;;;9.95;6.10;;;;;;;2.76;51.98;96077.13;5095790;28;20033;-67
2022/02/13 02:35:47;;;;;;;6.70;4.30;;;;;;;2.79;51.79;96069.38;5102249;27;20111;-67
2022/02/13 02:38:13;;;;;;;7.25;4.50;;;;;;;2.67;51.26;96070.56;5082387;27;20496;-67
2022/02/13 02:40:38;;;;;;;5.97;3.40;;;;;;;2.77;48.84;96082.22;5121047;27;20027;-67
2022/02/13 02:43:04;;;;;;;5.75;3.22;;;;;;;2.54;48.94;96059.88;5109424;28;20039;-67
2022/02/13 02:45:29;;;;;;;6.57;3.45;;;;;;;2.43;50.08;96069.63;5110533;27;20032;-67
2022/02/13 02:47:55;;;;;;;5.90;3.47;;;;;;;2.50;50.18;96070.28;5072041;28;20028;-67
2022/02/13 02:50:21;;;;;;;5.15;3.20;;;;;;;2.47;50.09;96072.03;5095414;28;20020;-67
2022/02/13 02:52:46;;;;;;;5.32;2.90;;;;;;;2.40;48.33;96082.56;5112648;28;20034;-67
2022/02/13 02:55:12;;;;;;;5.95;3.33;;;;;;;2.48;47.99;96078.03;5094986;28;20030;-67
2022/02/13 02:57:37;;;;;;;5.82;3.30;;;;;;;2.55;49.45;96079.50;5125830;27;20031;-67
2022/02/13 03:00:03;;;;;;;5.90;3.22;;;;;;;2.65;48.28;96085.19;5132720;27;20039;-67
2022/02/13 03:02:29;;;;;;;4.50;3.05;;;;;;;2.72;48.38;96083.25;5109891;28;20085;-67
2022/02/13 03:04:54;;;;;;;5.35;3.42;;;;;;;2.64;50.23;96084.34;5122871;27;20035;-67
2022/02/13 03:07:19;;;;;;;6.10;3.25;;;;;;;2.66;49.35;96080.00;5133720;27;20428;-67
2022/02/13 03:09:45;;;;;;;5.80;2.85;;;;;;;2.66;48.88;96085.13;5134454;27;20533;-67
2022/02/13 03:12:10;;;;;;;4.00;2.60;;;;;;;2.72;48.34;96090.97;5134851;27;20027;-67
2022/02/13 03:14:36;;;;;;;5.93;3.25;;;;;;;2.69;48.85;96084.19;5131269;27;20511;-67
2022/02/13 03:17:06;;;;;;;6.85;3.00;;;;;;;2.57;48.77;96082.03;5114765;28;20027;-67
2022/02/13 03:19:32;;;;;;;9.57;3.15;;;;;;;2.64;48.61;96093.75;5114445;28;20032;-67
2022/02/13 03:21:57;;;;;;;5.40;3.22;;;;;;;2.59;49.14;96096.50;5114642;28;20513;-67
2022/02/13 03:24:23;;;;;;;4.22;2.70;;;;;;;2.57;49.62;96102.56;5123860;27;20516;-67
2022/02/13 03:26:48;;;;;;;4.25;2.58;;;;;;;2.52;48.78;96092.44;5133513;27;20027;-67
2022/02/13 03:29:14;;;;;;;5.97;3.15;;;;;;;2.46;48.83;96096.03;5116155;27;20035;-67
2022/02/13 03:31:40;;;;;;;5.07;2.70;;;;;;;2.41;49.55;96097.03;5133204;27;20140;-67
2022/02/13 03:34:06;;;;;;;5.28;2.95;;;;;;;2.24;49.53;96085.56;5122164;27;20390;-67
2022/02/13 03:36:31;;;;;;;4.32;3.00;;;;;;;2.33;50.16;96084.44;5095587;28;20061;-67
2022/02/13 03:38:56;;;;;;;6.60;3.40;;;;;;;2.43;50.16;96095.28;5095554;28;20032;-67
2022/02/13 03:41:22;;;;;;;4.50;2.88;;;;;;;2.50;49.34;96093.34;5112638;28;20405;-67
2022/02/13 03:43:47;;;;;;;6.72;3.20;;;;;;;2.47;49.49;96094.28;5127739;27;20042;-67
2022/02/13 03:46:12;;;;;;;5.95;3.13;;;;;;;2.42;49.72;96085.88;5132626;27;20027;-67
2022/02/13 03:48:38;;;;;;;4.80;2.78;;;;;;;2.50;50.02;96085.66;5132893;27;20043;-67
2022/02/13 03:51:03;;;;;;;4.90;3.05;;;;;;;2.29;49.21;96092.31;5134378;27;20034;-67
2022/02/13 03:53:29;;;;;;;5.32;2.85;;;;;;;2.34;48.93;96095.53;5115219;27;20042;-67
2022/02/13 03:55:54;;;;;;;5.53;3.10;;;;;;;2.38;49.70;96092.84;5112354;28;20034;-67
2022/02/13 03:58:19;;;;;;;4.60;2.80;;;;;;;2.39;49.81;96093.69;5113095;27;20028;-67
2022/02/13 04:00:45;;;;;;;5.00;2.88;;;;;;;2.40;49.41;96096.22;5112901;28;20027;-67
2022/02/13 04:03:10;;;;;;;3.90;2.60;;;;;;;2.33;50.53;96096.44;5113274;27;20536;-67
2022/02/13 04:05:36;;;;;;;7.82;3.75;;;;;;;2.31;50.27;96100.75;5113127;28;20035;-67
2022/02/13 04:08:01;;;;;;;8.20;3.65;;;;;;;2.13;51.60;96077.34;5113541;28;20027;-67
2022/02/13 04:10:27;;;;;;;5.03;3.20;;;;;;;2.34;51.20;96095.53;5127072;27;20042;-67
2022/02/13 04:12:52;;;;;;;5.85;2.70;;;;;;;2.35;51.23;96095.50;5131944;27;20023;-67
2022/02/13 04:15:18;;;;;;;8.25;2.70;;;;;;;2.27;50.49;96091.50;5133637;27;20027;-67
2022/02/13 04:17:43;;;;;;;5.75;2.95;;;;;;;2.41;50.16;96105.56;5133211;27;20027;-67
2022/02/13 04:20:09;;;;;;;6.53;3.45;;;;;;;2.33;50.88;96093.88;5115054;27;20035;-67
2022/02/13 04:22:35;;;;;;;6.25;3.30;;;;;;;2.26;51.60;96094.94;5117658;27;20031;-67
2022/02/13 04:25:00;;;;;;;4.93;2.97;;;;;;;2.35;51.08;96102.38;5104276;27;20098;-67
2022/02/13 04:27:25;;;;;;;5.15;3.42;;;;;;;2.20;51.82;96094.25;5095444;28;20405;-67
2022/02/13 04:29:51;;;;;;;6.95;3.58;;;;;;;2.16;51.69;96089.25;5081467;28;20023;-67
2022/02/13 04:32:16;;;;;;;6.15;3.30;;;;;;;2.15;51.47;96097.84;5123531;27;20028;-67
2022/02/13 04:34:45;;;;;;;5.72;3.58;;;;;;;2.16;51.93;96097.78;5098328;28;20024;-67
2022/02/13 04:37:11;;;;;;;5.80;3.30;;;;;;;2.13;52.81;96103.00;5102435;28;20039;-67
2022/02/13 04:39:36;;;;;;;5.80;3.75;;;;;;;2.15;53.14;96100.41;5097188;28;20477;-67
2022/02/13 04:42:02;;;;;;;6.60;3.60;;;;;;;2.12;52.87;96096.19;5109858;28;20054;-67
2022/02/13 04:44:27;;;;;;;7.00;3.88;;;;;;;1.82;53.83;96097.06;5114491;27;20039;-68
2022/02/13 04:46:52;;;;;;;8.18;3.78;;;;;;;1.97;54.14;96096.63;5103292;27;20518;-67
2022/02/13 04:49:18;;;;;;;6.82;3.88;;;;;;;1.98;54.52;96101.72;5101139;27;20044;-67
2022/02/13 04:51:43;;;;;;;9.48;3.80;;;;;;;1.99;54.12;96093.13;5108797;28;20027;-67
2022/02/13 04:54:09;;;;;;;5.18;3.50;;;;;;;1.90;54.31;96084.88;5094896;27;20028;-68
2022/02/13 04:56:34;;;;;;;6.47;4.18;;;;;;;1.90;55.02;96097.69;5054429;28;20032;-67
2022/02/13 04:58:59;;;;;;;5.38;3.75;;;;;;;1.95;54.40;96100.94;5088827;28;20515;-68
2022/02/13 05:01:25;;;;;;;7.00;3.95;;;;;;;1.90;55.01;96090.00;5105225;27;20485;-67
2022/02/13 05:03:51;;;;;;;6.00;3.70;;;;;;;1.91;55.08;96086.56;5057938;28;20028;-67
2022/02/13 05:06:17;;;;;;;7.82;4.68;;;;;;;1.82;55.77;96097.06;5088515;28;20526;-67
2022/02/13 05:08:42;;;;;;;8.60;3.83;;;;;;;1.88;55.08;96092.59;5082442;28;20118;-69
2022/02/13 05:11:08;;;;;;;5.57;3.65;;;;;;;1.96;54.93;96089.84;5069947;28;20020;-67
2022/02/13 05:13:33;;;;;;;6.28;4.22;;;;;;;1.96;55.18;96094.97;5098770;28;20047;-67
2022/02/13 05:15:59;;;;;;;7.82;3.85;;;;;;;1.97;55.09;96101.75;5109057;28;20042;-67
2022/02/13 05:18:24;;;;;;;8.02;4.30;;;;;;;1.90;55.22;96105.41;5083623;27;20481;-67
2022/02/13 05:20:49;;;;;;;6.72;4.20;;;;;;;1.92;55.74;96098.47;5112142;27;20375;-67
2022/02/13 05:23:15;;;;;;;7.05;4.10;;;;;;;1.92;55.41;96094.22;5102950;28;20426;-66
2022/02/13 05:25:40;;;;;;;6.25;4.32;;;;;;;1.84;56.25;96103.84;5109823;28;20043;-67
2022/02/13 05:28:06;;;;;;;6.07;4.07;;;;;;;1.91;55.61;96086.56;5107204;28;20088;-65
2022/02/13 05:30:31;;;;;;;5.93;4.25;;;;;;;1.99;55.38;96107.69;5106766;28;20038;-66
2022/02/13 05:32:56;;;;;;;6.82;4.45;;;;;;;1.97;55.30;96092.34;5089266;28;20028;-66
2022/02/13 05:35:22;;;;;;;6.95;3.85;;;;;;;2.05;55.52;96104.09;5086239;28;20028;-67
2022/02/13 05:37:48;;;;;;;6.82;4.28;;;;;;;1.96;55.23;96093.22;5101441;28;20036;-66
2022/02/13 05:40:14;;;;;;;7.18;4.50;;;;;;;1.77;55.81;96090.34;5106185;28;20080;-66
2022/02/13 05:42:39;;;;;;;6.00;3.90;;;;;;;1.90;55.59;96095.97;5108038;28;20640;-66
2022/02/13 05:45:05;;;;;;;9.38;5.03;;;;;;;1.82;56.15;96094.50;5084145;28;20032;-66
2022/02/13 05:47:30;;;;;;;6.82;4.82;;;;;;;1.85;56.51;96099.56;5091349;28;20458;-67
2022/02/13 05:49:56;;;;;;;6.55;4.20;;;;;;;1.96;55.90;96100.91;5119443;27;20417;-66
2022/02/13 05:52:21;;;;;;;8.95;6.53;;;;;;;1.91;56.79;96092.50;5106837;27;20027;-66
2022/02/13 05:54:46;;;;;;;7.30;4.78;;;;;;;1.93;56.65;96107.88;5099956;27;20028;-66
2022/02/13 05:57:12;;;;;;;5.72;4.25;;;;;;;1.94;56.77;96110.38;5086465;28;20037;-66
2022/02/13 05:59:37;;;;;;;7.43;4.30;;;;;;;1.96;56.11;96105.22;5109745;27;20035;-66
2022/02/13 06:02:03;;;;;;;6.57;4.30;;;;;;;1.99;56.78;96105.13;5086851;28;20032;-66
2022/02/13 06:04:28;;;;;;;6.50;4.45;;;;;;;1.92;56.89;96117.28;5099818;28;20040;-66
2022/02/13 06:06:54;;;;;;;6.35;4.38;;;;;;;1.88;57.36;96117.41;5093431;28;20654;-66
2022/02/13 06:09:20;;;;;;;8.18;5.20;;;;;;;1.96;58.02;96110.34;5090087;28;20164;-66
2022/02/13 06:11:45;;;;;;;9.07;5.28;;;;;;;1.91;58.11;96113.03;5095535;28;20558;-65
2022/02/13 06:14:11;;;;;;;7.57;4.68;;;;;;;1.89;58.00;96113.94;5075836;28;20032;-65
2022/02/13 06:16:37;;;;;;;7.97;5.28;;;;;;;1.90;58.05;96110.53;5109683;28;20035;-65
2022/02/13 06:19:02;;;;;;;7.40;4.78;;;;;;;1.89;58.36;96113.94;5110567;28;20564;-65
2022/02/13 06:21:28;;;;;;;7.72;5.28;;;;;;;1.85;58.76;96123.44;5107752;28;20481;-65
2022/02/13 06:23:53;;;;;;;6.60;4.45;;;;;;;1.96;58.35;96120.59;5094805;28;20494;-65
2022/02/13 06:26:19;;;;;;;7.72;5.20;;;;;;;1.94;58.65;96127.47;5105399;27;21170;-65
2022/02/13 06:28:44;;;;;;;8.18;6.10;;;;;;;2.01;59.11;96123.88;5103482;28;20032;-65
2022/02/13 06:31:11;;;;;;;7.25;5.05;;;;;;;1.98;58.96;96124.78;5105820;28;20047;-66
2022/02/13 06:33:36;;;;;;;9.18;5.55;;;;;;;1.93;59.67;96120.69;5068829;28;20036;-65
2022/02/13 06:36:02;;;;;;;8.82;5.15;;;;;;;1.78;59.67;96122.78;5090219;28;20039;-66
2022/02/13 06:38:27;;;;;;;7.07;5.22;;;;;;;1.83;59.86;96122.63;5118052;28;20068;-66
2022/02/13 06:40:52;;;;;;;7.05;5.07;;;;;;;1.88;59.10;96125.09;5109778;28;20043;-66
2022/02/13 06:43:18;;;;;;;8.63;5.15;;;;;;;1.90;59.72;96128.47;5099276;28;20031;-65
2022/02/13 06:45:43;;;;;;;6.97;4.80;;;;;;;1.98;58.99;96122.22;5107446;28;20562;-65
2022/02/13 06:48:09;;;;;;;7.35;5.18;;;;;;;1.98;59.63;96127.34;5096116;28;20048;-66
2022/02/13 06:50:35;;;;;;;8.15;5.07;;;;;;;1.97;59.82;96124.81;5072747;28;20042;-66
2022/02/13 06:53:01;;;;;;;7.05;5.03;;;;;;;2.07;58.70;96120.28;5099028;28;20039;-65
2022/02/13 06:55:27;;;;;;;8.43;6.05;;;;;;;1.84;59.50;96105.53;5098985;28;20469;-66
2022/02/13 06:57:52;;;;;;;8.35;5.32;;;;;;;1.97;59.60;96128.22;5113731;28;20023;-67
2022/02/13 07:00:18;;;;;;;10.45;5.65;;;;;;;1.95;59.62;96134.28;5105303;28;20425;-67
2022/02/13 07:02:43;;;;;;;7.20;5.63;;;;;;;1.74;60.44;96122.91;5109450;27;20059;-67
2022/02/13 07:05:09;;;;;;;10.63;6.72;;;;;;;1.77;60.54;96118.53;5108666;28;20049;-67
2022/02/13 07:07:36;;;;;;;9.75;7.10;;;;;;;1.76;60.86;96119.41;5101645;28;20405;-66
2022/02/13 07:10:05;;;;;;;11.00;7.47;;;;;;;1.87;60.20;96133.66;5096953;28;20088;-67
2022/02/13 07:12:30;;;;;;;8.70;6.85;;;;;;;1.82;60.87;96120.13;5117166;27;20139;-67
2022/02/13 07:14:56;;;;;;;9.27;6.82;;;;;;;1.77;61.82;96122.81;5107285;28;20035;-66
2022/02/13 07:17:21;;;;;;;12.43;8.07;;;;;;;1.79;61.43;96124.47;5107613;28;20031;-65
2022/02/13 07:19:46;;;;;;;11.75;7.10;;;;;;;1.89;61.02;96124.19;5106376;28;20020;-65
2022/02/13 07:22:12;;;;;;;9.15;6.85;;;;;;;1.72;61.56;96112.69;5119455;27;20103;-66
2022/02/13 07:24:40;;;;;;;9.68;7.43;;;;;;;1.85;62.20;96123.44;5102674;27;20040;-66
2022/02/13 07:27:07;;;;;;;10.00;7.53;;;;;;;1.94;61.44;96127.47;5104863;27;20036;-67
2022/02/13 07:29:33;;;;;;;21.45;11.15;;;;;;;1.88;62.19;96112.28;5087925;27;20032;-66
2022/02/13 07:31:59;;;;;;;13.93;10.18;;;;;;;1.92;62.64;96124.09;5113370;28;20098;-68
2022/02/13 07:34:25;;;;;;;14.35;9.18;;;;;;;1.97;62.14;96124.81;5111262;27;20061;-66
2022/02/13 07:36:54;;;;;;;13.23;8.43;;;;;;;1.98;60.86;96121.41;5122933;27;20024;-67
2022/02/13 07:39:20;;;;;;;11.55;6.47;;;;;;;2.00;60.79;96111.91;5112266;27;20428;-67
2022/02/13 07:41:46;;;;;;;9.50;6.78;;;;;;;1.87;61.10;96115.72;5097370;27;20036;-67
2022/02/13 07:44:11;;;;;;;13.32;9.25;;;;;;;1.90;61.70;96115.66;5121407;27;20038;-68
2022/02/13 07:46:37;;;;;;;19.60;12.48;;;;;;;1.98;62.88;96108.56;5125175;27;20027;-66
2022/02/13 07:49:05;;;;;;;13.98;8.18;;;;;;;2.13;61.24;96117.53;5104694;27;20039;-67
2022/02/13 07:51:32;;;;;;;8.98;6.68;;;;;;;2.15;60.52;96114.06;5091698;27;20024;-65
2022/02/13 07:53:58;;;;;;;12.15;8.60;;;;;;;2.05;62.10;96117.75;5120256;27;20031;-67
2022/02/13 07:56:23;;;;;;;19.30;13.40;;;;;;;2.05;62.15;96104.09;5100325;27;20069;-65
2022/02/13 07:58:49;;;;;;;13.95;8.65;;;;;;;2.09;61.84;96100.56;5096041;28;20031;-66
2022/02/13 08:01:17;;;;;;;11.40;8.32;;;;;;;2.08;63.25;96109.13;5112597;27;20398;-65
2022/02/13 08:03:42;;;;;;;11.20;7.55;;;;;;;2.19;62.55;96110.50;5132430;27;20038;-68
2022/02/13 08:06:09;;;;;;;8.18;6.38;;;;;;;2.13;62.40;96100.44;5134102;27;20039;-65
2022/02/13 08:08:36;;;;;;;9.68;6.40;;;;;;;2.10;63.16;96103.09;5133758;27;20087;-66
2022/02/13 08:11:02;;;;;;;10.50;7.20;;;;;;;2.02;63.84;96099.91;5132616;27;20472;-66
2022/02/13 08:13:29;;;;;;;10.05;6.97;;;;;;;2.04;63.94;96093.00;5132420;27;20035;-66
2022/02/13 08:15:54;;;;;;;10.85;7.35;;;;;;;2.06;63.38;96093.78;5115300;27;20024;-66
2022/02/13 08:18:19;;;;;;;12.57;8.13;;;;;;;2.08;63.63;96098.88;5132481;27;20039;-66
2022/02/13 08:20:46;;;;;;;7.72;5.95;;;;;;;2.05;63.13;96084.44;5133831;27;20030;-66
2022/02/13 08:23:11;;;;;;;9.60;6.32;;;;;;;2.18;63.83;96095.19;5132528;27;20032;-66
2022/02/13 08:25:40;;;;;;;7.03;5.85;;;;;;;2.26;62.25;96093.22;5132002;27;20095;-66
2022/02/13 08:28:06;;;;;;;10.40;6.00;;;;;;;2.22;63.24;96091.63;5132256;27;20247;-65
2022/02/13 08:30:31;;;;;;;13.80;9.10;;;;;;;2.18;64.21;96088.31;5097895;27;20027;-66
2022/02/13 08:32:58;;;;;;;11.80;8.00;;;;;;;2.26;64.19;96094.94;5132142;27;20127;-66
2022/02/13 08:35:24;;;;;;;13.57;8.60;;;;;;;2.23;63.76;96089.03;5131967;27;20088;-66
2022/02/13 08:37:50;;;;;;;10.10;6.65;;;;;;;2.23;63.32;96088.19;5132018;27;20481;-66
2022/02/13 08:40:15;;;;;;;10.52;6.38;;;;;;;2.22;63.59;96083.94;5131852;27;20088;-66
2022/02/13 08:42:40;;;;;;;8.48;6.65;;;;;;;2.24;62.71;96095.00;5114739;27;20027;-66
2022/02/13 08:45:06;;;;;;;11.40;6.90;;;;;;;2.27;62.85;96086.38;5132842;27;20027;-66
2022/02/13 08:47:31;;;;;;;8.63;6.43;;;;;;;2.30;62.97;96088.84;5132961;27;20035;-66
2022/02/13 08:49:57;;;;;;;10.75;8.30;;;;;;;2.38;62.95;96079.19;5131575;27;20035;-66
2022/02/13 08:52:22;;;;;;;17.35;10.88;;;;;;;2.38;63.53;96076.63;5131698;27;20038;-66
2022/02/13 08:54:48;;;;;;;17.05;10.73;;;;;;;2.52;62.89;96083.91;5133027;27;20023;-66
2022/02/13 08:57:13;;;;;;;10.88;6.85;;;;;;;2.59;62.29;96082.81;5132796;27;20031;-66
2022/02/13 08:59:39;;;;;;;10.43;7.20;;;;;;;2.60;61.80;96082.75;5132775;27;20113;-65
2022/02/13 09:02:04;;;;;;;8.38;6.20;;;;;;;2.50;62.05;96083.94;5114382;27;20462;-65
2022/02/13 09:04:34;;;;;;;8.43;6.88;;;;;;;2.44;61.99;96077.25;5114375;27;20041;-66
2022/02/13 09:07:00;;;;;;;8.68;6.07;;;;;;;2.46;61.21;96080.63;5115019;27;20027;-66
2022/02/13 09:09:26;;;;;;;10.85;6.78;;;;;;;2.55;61.43;96086.38;5131692;27;20034;-67
2022/02/13 09:11:52;;;;;;;81.10;22.73;;;;;;;2.46;62.65;96082.38;5131506;27;20027;-65
2022/02/13 09:14:17;;;;;;;24.00;10.10;;;;;;;2.41;62.27;96081.66;5132455;27;20382;-66
2022/02/13 09:16:42;;;;;;;10.25;7.20;;;;;;;2.60;60.76;96084.50;5114129;27;20191;-66
2022/02/13 09:19:08;;;;;;;10.95;7.18;;;;;;;2.49;60.55;96081.44;5097110;27;20039;-65
2022/02/13 09:21:37;;;;;;;9.15;6.80;;;;;;;2.46;60.76;96072.09;5132814;27;20382;-66
2022/02/13 09:24:02;;;;;;;9.65;7.13;;;;;;;2.38;61.20;96074.06;5130955;27;20063;-65
2022/02/13 09:26:28;;;;;;;14.10;9.38;;;;;;;2.45;62.17;96078.09;5114114;27;20027;-66
2022/02/13 09:28:53;;;;;;;16.08;12.13;;;;;;;2.53;61.62;96077.88;5113930;27;20031;-66
2022/02/13 09:31:18;;;;;;;23.65;15.13;;;;;;;2.54;61.27;96071.88;5132594;27;20023;-65
2022/02/13 09:33:44;;;;;;;13.07;8.88;;;;;;;2.65;60.93;96074.94;5130726;27;20035;-65
2022/02/13 09:36:10;;;;;;;10.23;7.70;;;;;;;2.74;59.82;96073.78;5132408;27;20027;-66
2022/02/13 09:38:35;;;;;;;11.02;7.65;;;;;;;2.69;60.08;96050.84;5113788;27;20036;-65
2022/02/13 09:41:01;;;;;;;11.00;8.48;;;;;;;2.73;60.36;96054.13;5113776;27;20096;-66
2022/02/13 09:43:26;;;;;;;26.48;15.52;;;;;;;2.76;59.83;96057.47;5130644;27;20409;-66
2022/02/13 09:45:52;;;;;;;16.55;10.73;;;;;;;2.86;60.27;96047.72;5130727;27;20034;-65
2022/02/13 09:48:22;;;;;;;17.77;10.43;;;;;;;2.91;59.96;96058.69;5113551;27;20042;-65
2022/02/13 09:50:47;;;;;;;15.95;10.50;;;;;;;3.00;59.70;96060.09;5131908;27;20019;-66
2022/02/13 09:53:17;;;;;;;11.23;7.10;;;;;;;2.90;58.84;96051.88;5113621;27;20038;-66
2022/02/13 09:55:42;;;;;;;60.40;30.67;;;;;;;2.88;59.90;96041.66;5132095;27;20105;-66
2022/02/13 09:58:08;;;;;;;16.20;10.48;;;;;;;3.08;58.94;96048.69;5096453;27;20044;-65
2022/02/13 10:00:56;;;;;;;13.40;8.85;;;;;;;2.99;58.85;96038.72;5132014;27;20024;-66
2022/02/13 10:03:25;;;;;;;30.67;17.10;;;;;;;3.15;58.74;96041.63;5114261;28;20118;-66
2022/02/13 10:05:51;;;;;;;13.25;7.80;;;;;;;2.98;57.31;96034.50;5131662;27;20085;-66
2022/02/13 10:08:32;;;;;;;11.10;7.28;;;;;;;3.01;57.81;96029.25;5130497;28;20061;-66
2022/02/13 10:11:07;;;;;;;12.25;8.18;;;;;;;3.01;56.94;96024.13;5130648;28;20095;-65
2022/02/13 10:13:51;;;;;;;10.68;7.43;;;;;;;3.11;57.24;96019.50;5131701;27;20027;-66
2022/02/13 10:16:18;;;;;;;10.20;7.15;;;;;;;3.21;56.87;96015.72;5132038;27;20027;-65
2022/02/13 10:18:46;;;;;;;11.10;7.70;;;;;;;3.33;57.32;96011.88;5131892;27;20084;-66
2022/02/13 10:21:12;;;;;;;11.70;7.95;;;;;;;3.42;57.05;96006.41;5113133;28;20115;-66
2022/02/13 10:23:37;;;;;;;14.18;9.00;;;;;;;3.51;56.24;96003.53;5130241;28;20051;-66
2022/02/13 10:26:17;;;;;;;12.50;8.07;;;;;;;3.51;54.99;95995.81;5131809;27;20035;-66
2022/02/13 10:28:53;;;;;;;20.83;11.98;;;;;;;3.62;56.14;96004.84;5130462;28;20027;-66
2022/02/13 10:31:21;;;;;;;25.95;15.65;;;;;;;3.58;55.80;95989.56;5130601;28;20400;-66
2022/02/13 10:33:56;;;;;;;13.35;8.13;;;;;;;3.68;55.21;95990.06;5113363;28;20070;-66
2022/02/13 10:36:22;;;;;;;12.43;8.00;;;;;;;3.70;54.87;95975.41;5113375;28;20137;-66
2022/02/13 10:38:47;;;;;;;12.50;8.82;;;;;;;3.65;54.55;95982.47;5131450;27;20416;-66
2022/02/13 10:41:35;;;;;;;14.48;8.55;;;;;;;3.37;54.58;95967.19;5131723;27;20031;-66
2022/02/13 10:44:03;;;;;;;13.50;8.65;;;;;;;3.58;55.09;95961.28;5131454;27;20186;-66
2022/02/13 10:46:36;;;;;;;13.65;9.23;;;;;;;3.60;54.84;95962.97;5098082;27;20031;-66
2022/02/13 10:49:05;;;;;;;12.10;7.65;;;;;;;3.69;54.11;95962.63;5135581;27;20023;-66
2022/02/13 10:51:30;;;;;;;12.35;8.45;;;;;;;3.78;54.68;95942.53;5135732;27;20099;-66
2022/02/13 10:53:56;;;;;;;11.43;8.23;;;;;;;3.78;54.33;95957.13;5134119;27;20035;-66
2022/02/13 10:56:21;;;;;;;10.60;6.97;;;;;;;3.79;54.17;95940.84;5134186;27;20035;-66
2022/02/13 10:58:47;;;;;;;11.48;7.30;;;;;;;3.96;53.05;95947.91;5117103;27;20031;-66
2022/02/13 11:01:13;;;;;;;10.30;6.70;;;;;;;4.09;53.18;95940.53;5133957;27;20027;-66
2022/02/13 11:03:38;;;;;;;10.75;7.45;;;;;;;4.09;52.99;95941.34;5116619;27;20031;-66
2022/02/13 11:06:04;;;;;;;26.55;13.52;;;;;;;4.17;53.18;95928.19;5099639;27;20103;-66
2022/02/13 11:08:34;;;;;;;12.20;7.22;;;;;;;4.21;52.75;95929.75;5133656;27;20457;-66
2022/02/13 11:11:00;;;;;;;11.45;8.35;;;;;;;4.36;52.39;95913.69;5100265;27;20031;-67
2022/02/13 11:13:27;;;;;;;12.00;8.23;;;;;;;4.53;52.84;95922.47;5133556;27;20030;-66
2022/02/13 11:15:52;;;;;;;13.75;7.72;;;;;;;4.55;51.72;95913.78;5099688;27;20030;-66
2022/02/13 11:18:23;;;;;;;14.40;8.68;;;;;;;4.53;52.09;95917.31;5134888;27;20027;-66
2022/02/13 11:20:50;;;;;;;15.85;10.13;;;;;;;4.58;51.66;95907.66;5116673;27;20027;-66
2022/02/13 11:23:29;;;;;;;11.82;8.43;;;;;;;4.63;51.29;95903.16;5134494;27;20027;-66
2022/02/13 11:25:59;;;;;;;11.90;7.68;;;;;;;4.66;51.17;95896.16;5134838;27;20115;-66
2022/02/13 11:28:27;;;;;;;12.27;7.80;;;;;;;4.48;51.26;95891.75;5116320;27;20035;-66
2022/02/13 11:30:54;;;;;;;22.67;11.88;;;;;;;4.62;51.71;95886.88;5133410;27;20109;-65